Flagstaff, Arizona
Current Conditions -  °F | °C
As of 4:57 AM on Sunday 25 Jan 2015 (Local Time) from KFLG Reporting Station
Clear Clear  
Wind Chill: 32°   Ceiling: Unl
Heat Index: 39°   Visibility: 10mi
Dew Point: 20°   Wind: 10mph
Humidity: 46%   Direction: 70°ENE
Pressure: 30.28"   Gusts: NA
Location:  35.2°N, 111.65°W
Report Text: KFLG 251157Z AUTO 07009KT 10SM CLR 04/M07 A3028 RMK AO2 SLP212 T00391067 10050 20028 58003 TSNO
Loading
Personal Weather Stations






























Interactive Weather Map New forecast layout! Learn more

10-Day Weather Forecast

Advertisements
Track Severe Weather on mobile